Wetterdaten: Woche 07.07.14 - 13.07.14 (KW28)
Datum Zeit Temp. A. Feuchte A. Luftdruck Regen Wind Richtung Sonnenschein ET UV Solar Taupunkt Windchill Windben
07.07.2014 00:00 19,2 C 75 % 1010,2 hPa 0,0 l/m 2,2 km/h (1 Bft) O-NO 0,00 h 0,025 mm 0,0 UV-I 0 W/m 14,8 C 19,2 C 3,8 km/h (1 Bft)
07.07.2014 01:00 18,1 C 79 % 1010,1 hPa 0,0 l/m 0,4 km/h (0 Bft) O-NO 0,00 h 0,025 mm 0,0 UV-I 0 W/m 14,3 C 18,1 C 0,8 km/h (0 Bft)
07.07.2014 02:00 19,7 C 71 % 1011,9 hPa 0,0 l/m 11,9 km/h (2 Bft) W 0,00 h 0,025 mm 0,0 UV-I 0 W/m 14,2 C 17,8 C 19,0 km/h (3 Bft)
07.07.2014 03:00 19,3 C 66 % 1012,9 hPa 0,0 l/m 4,2 km/h (1 Bft) W-NW 0,00 h 0,051 mm 0,0 UV-I 0 W/m 12,7 C 19,1 C 7,3 km/h (2 Bft)
07.07.2014 04:00 18,2 C 72 % 1013,3 hPa 0,0 l/m 4,9 km/h (1 Bft) W-SW 0,00 h 0,000 mm 0,0 UV-I 0 W/m 13,0 C 17,8 C 7,8 km/h (2 Bft)
07.07.2014 05:00 17,9 C 75 % 1013,3 hPa 0,0 l/m 0,8 km/h (0 Bft) W-SW 0,10 h 0,025 mm 0,0 UV-I 27 W/m 13,4 C 17,9 C 2,1 km/h (1 Bft)
07.07.2014 06:00 17,8 C 78 % 1013,2 hPa 0,0 l/m 0,7 km/h (0 Bft) N 0,00 h 0,025 mm 0,0 UV-I 18 W/m 13,9 C 17,8 C 1,4 km/h (1 Bft)
07.07.2014 07:00 17,7 C 82 % 1013,2 hPa 0,0 l/m 1,3 km/h (1 Bft) O-SO 0,70 h 0,025 mm 0,8 UV-I 99 W/m 14,7 C 17,7 C 3,1 km/h (1 Bft)
07.07.2014 08:00 19,1 C 76 % 1014,2 hPa 0,0 l/m 7,6 km/h (2 Bft) W-SW 1,00 h 0,051 mm 1,5 UV-I 280 W/m 14,8 C 18,3 C 11,6 km/h (2 Bft)
07.07.2014 09:00 19,0 C 76 % 1015,1 hPa 0,0 l/m 9,3 km/h (2 Bft) W-SW 1,00 h 0,178 mm 2,1 UV-I 227 W/m 14,7 C 17,9 C 13,6 km/h (3 Bft)
07.07.2014 10:00 19,7 C 74 % 1015,5 hPa 0,0 l/m 7,9 km/h (2 Bft) W-SW 1,00 h 0,203 mm 3,2 UV-I 398 W/m 14,9 C 18,9 C 11,9 km/h (2 Bft)
07.07.2014 11:00 20,8 C 70 % 1015,7 hPa 0,0 l/m 6,3 km/h (2 Bft) S 1,00 h 0,254 mm 4,9 UV-I 560 W/m 15,1 C 20,4 C 9,7 km/h (2 Bft)
07.07.2014 12:00 22,3 C 66 % 1015,5 hPa 0,0 l/m 4,6 km/h (1 Bft) W-NW 1,00 h 0,356 mm 5,0 UV-I 526 W/m 15,5 C 22,1 C 7,9 km/h (2 Bft)
07.07.2014 13:00 23,3 C 61 % 1015,0 hPa 0,0 l/m 4,6 km/h (1 Bft) NW 1,00 h 0,356 mm 4,7 UV-I 517 W/m 15,4 C 23,2 C 7,3 km/h (2 Bft)
07.07.2014 14:00 24,1 C 59 % 1014,4 hPa 0,0 l/m 2,8 km/h (1 Bft) NO 1,00 h 0,330 mm 5,3 UV-I 648 W/m 15,4 C 24,1 C 5,6 km/h (1 Bft)
07.07.2014 15:00 25,0 C 55 % 1013,7 hPa 0,0 l/m 3,1 km/h (1 Bft) NO 1,00 h 0,406 mm 4,1 UV-I 532 W/m 15,5 C 25,0 C 5,3 km/h (1 Bft)
07.07.2014 16:00 25,5 C 55 % 1013,0 hPa 0,0 l/m 4,9 km/h (1 Bft) N 1,00 h 0,356 mm 2,9 UV-I 370 W/m 15,8 C 25,3 C 8,0 km/h (2 Bft)
07.07.2014 17:00 25,0 C 56 % 1012,4 hPa 0,0 l/m 8,4 km/h (2 Bft) N-NO 1,00 h 0,279 mm 1,9 UV-I 257 W/m 15,7 C 24,5 C 13,2 km/h (3 Bft)
07.07.2014 18:00 24,7 C 57 % 1011,9 hPa 0,0 l/m 7,9 km/h (2 Bft) N 1,00 h 0,229 mm 1,0 UV-I 121 W/m 15,5 C 24,3 C 11,8 km/h (2 Bft)
07.07.2014 19:00 23,7 C 61 % 1011,4 hPa 0,0 l/m 7,9 km/h (2 Bft) N-NO 0,60 h 0,127 mm 0,6 UV-I 63 W/m 15,7 C 23,2 C 12,4 km/h (3 Bft)
07.07.2014 20:00 22,8 C 67 % 1011,2 hPa 0,0 l/m 8,3 km/h (2 Bft) N 0,12 h 0,102 mm 0,0 UV-I 30 W/m 16,4 C 22,2 C 12,8 km/h (3 Bft)
07.07.2014 21:00 21,4 C 72 % 1010,8 hPa 0,0 l/m 7,1 km/h (2 Bft) N 0,00 h 0,076 mm 0,0 UV-I 5 W/m 16,3 C 21,0 C 11,0 km/h (2 Bft)
07.07.2014 22:00 20,1 C 81 % 1010,5 hPa 0,0 l/m 7,0 km/h (2 Bft) N 0,00 h 0,025 mm 0,0 UV-I 0 W/m 16,6 C 19,6 C 10,5 km/h (2 Bft)
07.07.2014 23:00 19,1 C 87 % 1010,5 hPa 0,0 l/m 4,3 km/h (1 Bft) N-NO 0,00 h 0,025 mm 0,0 UV-I 0 W/m 16,8 C 19,0 C 7,1 km/h (2 Bft)
08.07.2014 00:00 18,5 C 91 % 1010,2 hPa 0,8 l/m 3,7 km/h (1 Bft) N-NW 0,00 h 0,025 mm 0,0 UV-I 0 W/m 16,9 C 18,4 C 6,2 km/h (2 Bft)
08.07.2014 01:00 17,9 C 94 % 1009,1 hPa 0,4 l/m 7,1 km/h (2 Bft) N 0,00 h 0,000 mm 0,0 UV-I 0 W/m 16,9 C 17,3 C 10,5 km/h (2 Bft)
08.07.2014 02:00 17,7 C 94 % 1008,5 hPa 0,0 l/m 5,0 km/h (1 Bft) N 0,00 h 0,000 mm 0,0 UV-I 0 W/m 16,7 C 17,5 C 8,0 km/h (2 Bft)
08.07.2014 03:00 17,4 C 95 % 1007,4 hPa 0,0 l/m 6,9 km/h (2 Bft) N-NO 0,00 h 0,000 mm 0,0 UV-I 0 W/m 16,5 C 17,0 C 10,6 km/h (2 Bft)
08.07.2014 04:00 16,8 C 96 % 1006,5 hPa 0,0 l/m 1,8 km/h (1 Bft) NO 0,00 h 0,000 mm 0,0 UV-I 0 W/m 16,1 C 16,8 C 4,0 km/h (1 Bft)
08.07.2014 05:00 16,5 C 96 % 1006,0 hPa 0,0 l/m 3,6 km/h (1 Bft) N 0,00 h 0,000 mm 0,0 UV-I 11 W/m 15,9 C 16,5 C 6,4 km/h (2 Bft)
08.07.2014 06:00 16,5 C 96 % 1005,8 hPa 0,0 l/m 5,2 km/h (1 Bft) N 0,00 h 0,000 mm 0,0 UV-I 25 W/m 16,0 C 16,4 C 8,0 km/h (2 Bft)
08.07.2014 07:00 17,4 C 96 % 1005,7 hPa 0,0 l/m 3,8 km/h (1 Bft) N 0,47 h 0,025 mm 0,0 UV-I 49 W/m 16,8 C 17,3 C 6,0 km/h (2 Bft)
08.07.2014 08:00 18,1 C 94 % 1005,4 hPa 0,0 l/m 3,3 km/h (1 Bft) N 1,00 h 0,025 mm 0,5 UV-I 82 W/m 17,1 C 18,1 C 5,1 km/h (1 Bft)
08.07.2014 09:00 19,2 C 91 % 1004,8 hPa 0,0 l/m 2,8 km/h (1 Bft) N 1,00 h 0,051 mm 1,3 UV-I 189 W/m 17,7 C 19,2 C 4,9 km/h (1 Bft)
08.07.2014 10:00 20,7 C 83 % 1004,4 hPa 0,0 l/m 4,6 km/h (1 Bft) W 1,00 h 0,102 mm 3,0 UV-I 357 W/m 17,6 C 20,6 C 7,3 km/h (2 Bft)
08.07.2014 11:00 22,1 C 74 % 1004,4 hPa 0,0 l/m 5,0 km/h (1 Bft) W-SW 1,00 h 0,254 mm 4,6 UV-I 565 W/m 17,3 C 22,0 C 8,0 km/h (2 Bft)
08.07.2014 12:00 22,9 C 72 % 1004,1 hPa 0,0 l/m 7,4 km/h (2 Bft) W-SW 1,00 h 0,356 mm 5,7 UV-I 662 W/m 17,5 C 22,5 C 11,3 km/h (2 Bft)
08.07.2014 13:00 23,2 C 70 % 1003,6 hPa 0,0 l/m 8,8 km/h (2 Bft) W-SW 1,00 h 0,432 mm 5,2 UV-I 565 W/m 17,3 C 22,4 C 13,6 km/h (3 Bft)
08.07.2014 14:00 21,4 C 76 % 1003,4 hPa 0,0 l/m 8,9 km/h (2 Bft) W-SW 1,00 h 0,381 mm 1,3 UV-I 134 W/m 16,9 C 20,6 C 13,2 km/h (3 Bft)
08.07.2014 15:00 21,1 C 74 % 1003,1 hPa 0,0 l/m 11,5 km/h (2 Bft) W 1,00 h 0,102 mm 1,8 UV-I 205 W/m 16,3 C 19,5 C 17,4 km/h (3 Bft)
08.07.2014 16:00 20,9 C 71 % 1003,1 hPa 0,0 l/m 11,5 km/h (2 Bft) W 1,00 h 0,152 mm 1,5 UV-I 196 W/m 15,5 C 19,2 C 17,3 km/h (3 Bft)
08.07.2014 17:00 20,6 C 70 % 1003,3 hPa 0,0 l/m 11,0 km/h (2 Bft) W 1,00 h 0,152 mm 0,8 UV-I 109 W/m 14,8 C 19,1 C 17,1 km/h (3 Bft)
08.07.2014 18:00 19,3 C 74 % 1003,6 hPa 0,0 l/m 11,1 km/h (2 Bft) W 0,87 h 0,102 mm 0,5 UV-I 60 W/m 14,5 C 17,6 C 16,9 km/h (3 Bft)
08.07.2014 19:00 18,0 C 79 % 1003,6 hPa 0,0 l/m 11,0 km/h (2 Bft) W 0,17 h 0,076 mm 0,0 UV-I 34 W/m 14,2 C 16,1 C 17,1 km/h (3 Bft)
08.07.2014 20:00 16,8 C 82 % 1003,8 hPa 0,0 l/m 10,0 km/h (2 Bft) W-SW 0,00 h 0,051 mm 0,0 UV-I 13 W/m 13,8 C 15,2 C 14,8 km/h (3 Bft)
08.07.2014 21:00 15,3 C 91 % 1004,1 hPa 3,0 l/m 6,9 km/h (2 Bft) W 0,00 h 0,025 mm 0,0 UV-I 0 W/m 13,9 C 14,4 C 10,5 km/h (2 Bft)
08.07.2014 22:00 14,7 C 94 % 1004,0 hPa 1,6 l/m 4,1 km/h (1 Bft) W-SW 0,00 h 0,000 mm 0,0 UV-I 0 W/m 13,8 C 14,6 C 7,2 km/h (2 Bft)
08.07.2014 23:00 14,1 C 94 % 1004,0 hPa 2,6 l/m 9,1 km/h (2 Bft) W-SW 0,00 h 0,000 mm 0,0 UV-I 0 W/m 13,1 C 12,5 C 14,3 km/h (3 Bft)
09.07.2014 00:00 13,4 C 94 % 1003,9 hPa 4,0 l/m 8,2 km/h (2 Bft) W-SW 0,00 h 0,000 mm 0,0 UV-I 0 W/m 12,5 C 12,2 C 13,5 km/h (3 Bft)
09.07.2014 01:00 13,1 C 95 % 1003,5 hPa 4,0 l/m 7,1 km/h (2 Bft) SW 0,00 h 0,000 mm 0,0 UV-I 0 W/m 12,3 C 12,4 C 11,6 km/h (2 Bft)
09.07.2014 02:00 12,9 C 95 % 1002,9 hPa 3,8 l/m 6,2 km/h (2 Bft) W-SW 0,00 h 0,000 mm 0,0 UV-I 0 W/m 12,1 C 12,5 C 10,1 km/h (2 Bft)
09.07.2014 03:00 12,8 C 96 % 1002,6 hPa 2,8 l/m 4,7 km/h (1 Bft) SW 0,00 h 0,000 mm 0,0 UV-I 0 W/m 12,1 C 12,6 C 8,2 km/h (2 Bft)
09.07.2014 04:00 12,5 C 96 % 1001,9 hPa 3,4 l/m 7,9 km/h (2 Bft) W-SW 0,00 h 0,000 mm 0,0 UV-I 0 W/m 11,9 C 11,6 C 12,7 km/h (3 Bft)
09.07.2014 05:00 12,4 C 96 % 1001,9 hPa 2,8 l/m 7,4 km/h (2 Bft) SW 0,00 h 0,000 mm 0,0 UV-I 5 W/m 11,7 C 11,5 C 12,1 km/h (2 Bft)
09.07.2014 06:00 12,3 C 96 % 1002,2 hPa 3,4 l/m 7,1 km/h (2 Bft) W-SW 0,00 h 0,000 mm 0,0 UV-I 14 W/m 11,6 C 11,4 C 11,2 km/h (2 Bft)
09.07.2014 07:00 12,3 C 96 % 1002,2 hPa 0,6 l/m 6,8 km/h (2 Bft) SW 0,52 h 0,000 mm 0,6 UV-I 68 W/m 11,6 C 11,6 C 11,4 km/h (2 Bft)
09.07.2014 08:00 12,4 C 94 % 1002,2 hPa 0,0 l/m 9,4 km/h (2 Bft) W-SW 1,00 h 0,051 mm 0,7 UV-I 116 W/m 11,4 C 10,7 C 14,4 km/h (3 Bft)
09.07.2014 09:00 12,5 C 92 % 1002,5 hPa 0,0 l/m 11,4 km/h (2 Bft) W-SW 1,00 h 0,051 mm 1,1 UV-I 156 W/m 11,2 C 9,8 C 17,2 km/h (3 Bft)
09.07.2014 10:00 12,6 C 90 % 1002,9 hPa 0,0 l/m 11,1 km/h (2 Bft) W 1,00 h 0,076 mm 1,1 UV-I 133 W/m 11,0 C 10,0 C 17,3 km/h (3 Bft)
09.07.2014 11:00 12,5 C 91 % 1003,6 hPa 0,0 l/m 8,8 km/h (2 Bft) W-SW 1,00 h 0,076 mm 1,1 UV-I 121 W/m 11,1 C 11,1 C 14,0 km/h (3 Bft)
09.07.2014 12:00 12,6 C 89 % 1004,2 hPa 0,0 l/m 9,9 km/h (2 Bft) W-SW 1,00 h 0,076 mm 1,3 UV-I 139 W/m 10,9 C 10,6 C 14,9 km/h (3 Bft)
09.07.2014 13:00 12,9 C 88 % 1004,6 hPa 0,0 l/m 9,3 km/h (2 Bft) W-SW 1,00 h 0,076 mm 1,9 UV-I 206 W/m 11,0 C 11,2 C 14,4 km/h (3 Bft)
09.07.2014 14:00 12,8 C 87 % 1005,2 hPa 0,0 l/m 7,9 km/h (2 Bft) W-SW 1,00 h 0,102 mm 1,2 UV-I 113 W/m 10,8 C 11,7 C 12,2 km/h (2 Bft)
09.07.2014 15:00 13,0 C 87 % 1005,5 hPa 0,0 l/m 8,0 km/h (2 Bft) W-SW 1,00 h 0,076 mm 1,3 UV-I 139 W/m 10,8 C 12,0 C 12,9 km/h (3 Bft)
09.07.2014 16:00 12,9 C 88 % 1006,0 hPa 0,0 l/m 8,2 km/h (2 Bft) SW 1,00 h 0,076 mm 1,3 UV-I 144 W/m 11,0 C 11,6 C 12,8 km/h (3 Bft)
09.07.2014 17:00 12,5 C 90 % 1006,3 hPa 0,0 l/m 9,0 km/h (2 Bft) W-SW 1,00 h 0,076 mm 0,8 UV-I 93 W/m 10,9 C 10,8 C 14,0 km/h (3 Bft)
09.07.2014 18:00 12,3 C 90 % 1006,8 hPa 0,0 l/m 6,8 km/h (2 Bft) W-SW 0,72 h 0,051 mm 0,5 UV-I 57 W/m 10,8 C 11,7 C 10,7 km/h (2 Bft)
09.07.2014 19:00 12,2 C 93 % 1007,1 hPa 0,0 l/m 4,8 km/h (1 Bft) W-SW 0,43 h 0,025 mm 0,5 UV-I 54 W/m 11,1 C 12,0 C 8,0 km/h (2 Bft)
09.07.2014 20:00 12,0 C 94 % 1007,3 hPa 0,0 l/m 5,0 km/h (1 Bft) SW 0,00 h 0,025 mm 0,0 UV-I 14 W/m 11,0 C 11,8 C 8,8 km/h (2 Bft)
09.07.2014 21:00 11,8 C 95 % 1007,8 hPa 0,4 l/m 4,2 km/h (1 Bft) SW 0,00 h 0,000 mm 0,0 UV-I 0 W/m 11,0 C 11,7 C 7,0 km/h (2 Bft)
09.07.2014 22:00 11,3 C 95 % 1007,8 hPa 0,0 l/m 6,2 km/h (2 Bft) W-SW 0,00 h 0,001 mm 0,0 UV-I 0 W/m 10,5 C 10,8 C 10,5 km/h (2 Bft)
09.07.2014 23:00 11,1 C 95 % 1007,6 hPa 0,0 l/m 6,9 km/h (2 Bft) SW 0,00 h 0,000 mm 0,0 UV-I 0 W/m 10,3 C 10,3 C 11,3 km/h (2 Bft)
10.07.2014 00:00 10,9 C 95 % 1007,6 hPa 0,0 l/m 6,5 km/h (2 Bft) W-SW 0,00 h 0,000 mm 0,0 UV-I 0 W/m 10,1 C 10,3 C 10,4 km/h (2 Bft)
10.07.2014 01:00 10,8 C 96 % 1007,8 hPa 0,0 l/m 2,3 km/h (1 Bft) SW 0,00 h 0,000 mm 0,0 UV-I 0 W/m 10,2 C 10,8 C 4,9 km/h (1 Bft)
10.07.2014 02:00 10,8 C 96 % 1007,9 hPa 0,0 l/m 2,3 km/h (1 Bft) SW 0,00 h 0,000 mm 0,0 UV-I 0 W/m 10,2 C 10,7 C 4,7 km/h (1 Bft)
10.07.2014 03:00 10,7 C 96 % 1007,2 hPa 0,0 l/m 4,3 km/h (1 Bft) W-SW 0,00 h 0,000 mm 0,0 UV-I 0 W/m 10,1 C 10,6 C 7,2 km/h (2 Bft)
10.07.2014 04:00 10,6 C 96 % 1007,0 hPa 0,2 l/m 4,1 km/h (1 Bft) W-SW 0,00 h 0,000 mm 0,0 UV-I 0 W/m 10,0 C 10,6 C 6,8 km/h (2 Bft)
10.07.2014 05:00 10,6 C 96 % 1007,2 hPa 0,0 l/m 3,2 km/h (1 Bft) W-SW 0,00 h 0,000 mm 0,0 UV-I 6 W/m 10,0 C 10,6 C 5,8 km/h (2 Bft)
10.07.2014 06:00 10,7 C 96 % 1007,2 hPa 0,2 l/m 3,4 km/h (1 Bft) SW 0,00 h 0,000 mm 0,0 UV-I 24 W/m 10,1 C 10,7 C 6,2 km/h (2 Bft)
10.07.2014 07:00 11,0 C 96 % 1007,5 hPa 0,0 l/m 3,0 km/h (1 Bft) S-SW 0,57 h 0,025 mm 0,0 UV-I 56 W/m 10,3 C 11,0 C 5,7 km/h (1 Bft)
10.07.2014 08:00 11,4 C 94 % 1007,7 hPa 0,0 l/m 3,1 km/h (1 Bft) SW 1,00 h 0,025 mm 0,7 UV-I 99 W/m 10,5 C 11,4 C 5,6 km/h (1 Bft)
10.07.2014 09:00 11,9 C 93 % 1008,0 hPa 0,4 l/m 4,9 km/h (1 Bft) SW 1,00 h 0,052 mm 1,2 UV-I 173 W/m 10,8 C 11,8 C 7,9 km/h (2 Bft)
10.07.2014 10:00 12,3 C 92 % 1008,0 hPa 0,0 l/m 6,4 km/h (2 Bft) W-SW 1,00 h 0,076 mm 1,3 UV-I 160 W/m 11,0 C 11,8 C 10,2 km/h (2 Bft)
10.07.2014 11:00 12,7 C 89 % 1008,1 hPa 0,0 l/m 6,9 km/h (2 Bft) W-NW 1,00 h 0,076 mm 1,6 UV-I 177 W/m 10,9 C 11,9 C 10,4 km/h (2 Bft)
10.07.2014 12:00 12,7 C 92 % 1008,4 hPa 0,2 l/m 5,0 km/h (1 Bft) S 1,00 h 0,102 mm 1,3 UV-I 145 W/m 11,4 C 12,5 C 8,4 km/h (2 Bft)
10.07.2014 13:00 13,1 C 91 % 1008,5 hPa 0,0 l/m 7,2 km/h (2 Bft) W-SW 1,00 h 0,076 mm 2,5 UV-I 275 W/m 11,7 C 12,2 C 10,9 km/h (2 Bft)
10.07.2014 14:00 13,3 C 89 % 1008,4 hPa 0,2 l/m 7,7 km/h (2 Bft) W-SW 1,00 h 0,152 mm 1,6 UV-I 172 W/m 11,6 C 12,4 C 11,4 km/h (2 Bft)
10.07.2014 15:00 12,5 C 95 % 1008,6 hPa 1,0 l/m 5,9 km/h (2 Bft) W-SW 1,00 h 0,102 mm 0,9 UV-I 105 W/m 11,7 C 12,1 C 9,6 km/h (2 Bft)
10.07.2014 16:00 12,5 C 95 % 1008,6 hPa 0,0 l/m 6,0 km/h (2 Bft) W-SW 0,80 h 0,051 mm 0,6 UV-I 71 W/m 11,6 C 12,0 C 9,7 km/h (2 Bft)
10.07.2014 17:00 12,4 C 95 % 1008,5 hPa 0,4 l/m 4,1 km/h (1 Bft) SW 0,53 h 0,051 mm 0,5 UV-I 47 W/m 11,7 C 12,3 C 7,4 km/h (2 Bft)
10.07.2014 18:00 12,2 C 96 % 1008,6 hPa 0,4 l/m 4,0 km/h (1 Bft) S 0,00 h 0,025 mm 0,0 UV-I 22 W/m 11,6 C 12,2 C 7,1 km/h (2 Bft)
10.07.2014 19:00 12,2 C 97 % 1008,6 hPa 0,4 l/m 4,1 km/h (1 Bft) S-SO 0,00 h 0,000 mm 0,0 UV-I 8 W/m 11,7 C 12,2 C 6,6 km/h (2 Bft)
10.07.2014 20:00 12,2 C 97 % 1009,0 hPa 0,6 l/m 3,1 km/h (1 Bft) SO 0,00 h 0,000 mm 0,0 UV-I 7 W/m 11,7 C 12,2 C 5,5 km/h (1 Bft)
10.07.2014 21:00 12,2 C 97 % 1009,6 hPa 0,0 l/m 0,9 km/h (0 Bft) O-SO 0,00 h 0,000 mm 0,0 UV-I 0 W/m 11,7 C 12,2 C 2,5 km/h (1 Bft)
10.07.2014 22:00 12,3 C 97 % 1009,9 hPa 0,0 l/m 0,2 km/h (0 Bft) O 0,00 h 0,000 mm 0,0 UV-I 0 W/m 11,8 C 12,3 C 0,9 km/h (0 Bft)
10.07.2014 23:00 12,3 C 97 % 1010,1 hPa 0,0 l/m 0,4 km/h (0 Bft) O 0,00 h 0,000 mm 0,0 UV-I 0 W/m 11,8 C 12,3 C 1,4 km/h (1 Bft)
11.07.2014 00:00 12,2 C 97 % 1010,1 hPa 0,0 l/m 2,0 km/h (1 Bft) NO 0,00 h 0,000 mm 0,0 UV-I 0 W/m 11,7 C 12,2 C 3,8 km/h (1 Bft)
11.07.2014 01:00 12,1 C 97 % 1010,2 hPa 0,0 l/m 1,9 km/h (1 Bft) NO 0,00 h 0,000 mm 0,0 UV-I 0 W/m 11,6 C 12,1 C 4,0 km/h (1 Bft)
11.07.2014 02:00 12,0 C 96 % 1010,5 hPa 0,0 l/m 2,7 km/h (1 Bft) N-NO 0,00 h 0,000 mm 0,0 UV-I 0 W/m 11,4 C 12,0 C 4,8 km/h (1 Bft)
11.07.2014 03:00 11,8 C 96 % 1010,8 hPa 0,0 l/m 0,8 km/h (0 Bft) N-NO 0,00 h 0,000 mm 0,0 UV-I 0 W/m 11,2 C 11,8 C 2,0 km/h (1 Bft)
11.07.2014 04:00 11,2 C 96 % 1010,7 hPa 0,0 l/m 1,2 km/h (1 Bft) N-NO 0,00 h 0,000 mm 0,0 UV-I 0 W/m 10,6 C 11,2 C 2,7 km/h (1 Bft)
11.07.2014 05:00 10,1 C 97 % 1010,8 hPa 0,0 l/m 0,5 km/h (0 Bft) N-NO 0,00 h 0,000 mm 0,0 UV-I 9 W/m 9,6 C 10,1 C 1,8 km/h (1 Bft)
11.07.2014 06:00 10,7 C 98 % 1011,4 hPa 0,0 l/m 3,2 km/h (1 Bft) N 0,30 h 0,000 mm 0,0 UV-I 40 W/m 10,4 C 10,6 C 6,0 km/h (2 Bft)
11.07.2014 07:00 11,7 C 98 % 1011,5 hPa 0,0 l/m 1,3 km/h (1 Bft) N 1,00 h 0,025 mm 0,7 UV-I 119 W/m 11,3 C 11,7 C 2,6 km/h (1 Bft)
11.07.2014 08:00 12,8 C 95 % 1011,6 hPa 0,0 l/m 2,1 km/h (1 Bft) N-NW 1,00 h 0,051 mm 1,0 UV-I 170 W/m 11,9 C 12,8 C 4,1 km/h (1 Bft)
11.07.2014 09:00 13,6 C 92 % 1011,9 hPa 0,0 l/m 1,7 km/h (1 Bft) N-NW 1,00 h 0,076 mm 1,2 UV-I 183 W/m 12,4 C 13,6 C 3,2 km/h (1 Bft)
11.07.2014 10:00 15,0 C 90 % 1012,2 hPa 0,0 l/m 0,8 km/h (0 Bft) W 1,00 h 0,102 mm 2,4 UV-I 306 W/m 13,4 C 15,0 C 2,0 km/h (1 Bft)
11.07.2014 11:00 15,9 C 89 % 1012,0 hPa 0,0 l/m 1,5 km/h (1 Bft) S-SO 1,00 h 0,178 mm 2,0 UV-I 230 W/m 14,1 C 15,9 C 3,1 km/h (1 Bft)
11.07.2014 12:00 17,1 C 89 % 1011,8 hPa 0,0 l/m 3,4 km/h (1 Bft) W-SW 1,00 h 0,127 mm 2,9 UV-I 314 W/m 15,2 C 17,1 C 5,8 km/h (2 Bft)
11.07.2014 13:00 20,1 C 78 % 1011,2 hPa 0,0 l/m 4,5 km/h (1 Bft) W-SW 1,00 h 0,178 mm 5,8 UV-I 642 W/m 16,1 C 19,9 C 7,5 km/h (2 Bft)
11.07.2014 14:00 21,4 C 69 % 1010,6 hPa 0,0 l/m 3,4 km/h (1 Bft) W-NW 1,00 h 0,381 mm 4,7 UV-I 555 W/m 15,4 C 21,3 C 5,8 km/h (2 Bft)
11.07.2014 15:00 22,3 C 64 % 1010,0 hPa 0,0 l/m 4,1 km/h (1 Bft) N-NO 1,00 h 0,356 mm 3,9 UV-I 488 W/m 15,2 C 22,3 C 6,9 km/h (2 Bft)
11.07.2014 16:00 22,7 C 61 % 1009,5 hPa 0,0 l/m 3,6 km/h (1 Bft) W-NW 1,00 h 0,330 mm 3,5 UV-I 550 W/m 14,9 C 22,7 C 6,2 km/h (2 Bft)
11.07.2014 17:00 22,0 C 66 % 1009,0 hPa 0,4 l/m 4,6 km/h (1 Bft) S 0,82 h 0,356 mm 1,6 UV-I 220 W/m 15,2 C 22,0 C 8,0 km/h (2 Bft)
11.07.2014 18:00 17,8 C 88 % 1009,6 hPa 6,6 l/m 6,2 km/h (2 Bft) N-NO 0,20 h 0,152 mm 0,0 UV-I 39 W/m 15,7 C 17,0 C 11,4 km/h (2 Bft)
11.07.2014 19:00 15,6 C 90 % 1010,6 hPa 0,0 l/m 4,4 km/h (1 Bft) N 0,00 h 0,025 mm 0,0 UV-I 14 W/m 14,0 C 15,1 C 7,1 km/h (2 Bft)
11.07.2014 20:00 14,7 C 93 % 1010,7 hPa 0,2 l/m 1,9 km/h (1 Bft) N 0,00 h 0,025 mm 0,0 UV-I 14 W/m 13,6 C 14,7 C 3,4 km/h (1 Bft)
11.07.2014 21:00 14,4 C 94 % 1011,3 hPa 0,0 l/m 0,3 km/h (0 Bft) NW 0,00 h 0,000 mm 0,0 UV-I 0 W/m 13,5 C 14,4 C 1,1 km/h (1 Bft)
11.07.2014 22:00 13,9 C 96 % 1011,2 hPa 0,0 l/m 0,4 km/h (0 Bft) O 0,00 h 0,000 mm 0,0 UV-I 0 W/m 13,3 C 13,9 C 1,3 km/h (1 Bft)
11.07.2014 23:00 13,6 C 97 % 1011,2 hPa 0,0 l/m 0,1 km/h (0 Bft) O 0,00 h 0,000 mm 0,0 UV-I 0 W/m 13,1 C 13,6 C 0,5 km/h (0 Bft)
12.07.2014 00:00 13,2 C 97 % 1010,8 hPa 0,0 l/m 0,2 km/h (0 Bft) O-SO 0,00 h 0,000 mm 0,0 UV-I 0 W/m 12,7 C 13,2 C 0,9 km/h (0 Bft)
12.07.2014 01:00 13,0 C 97 % 1010,7 hPa 0,0 l/m 0,2 km/h (0 Bft) O 0,00 h 0,000 mm 0,0 UV-I 0 W/m 12,6 C 13,0 C 0,6 km/h (0 Bft)
12.07.2014 02:00 12,9 C 98 % 1010,7 hPa 0,0 l/m 0,0 km/h (0 Bft) N 0,00 h 0,000 mm 0,0 UV-I 0 W/m 12,6 C 12,9 C 0,2 km/h (0 Bft)
12.07.2014 03:00 12,8 C 98 % 1010,6 hPa 0,0 l/m 0,0 km/h (0 Bft) N 0,00 h 0,000 mm 0,0 UV-I 0 W/m 12,5 C 12,8 C 0,3 km/h (0 Bft)
12.07.2014 04:00 12,7 C 98 % 1010,3 hPa 0,0 l/m 0,3 km/h (0 Bft) N 0,00 h 0,000 mm 0,0 UV-I 0 W/m 12,4 C 12,7 C 0,9 km/h (0 Bft)
12.07.2014 05:00 12,9 C 98 % 1010,3 hPa 0,0 l/m 0,1 km/h (0 Bft) N 0,00 h 0,000 mm 0,0 UV-I 7 W/m 12,6 C 12,9 C 0,2 km/h (0 Bft)
12.07.2014 06:00 13,5 C 98 % 1010,2 hPa 0,0 l/m 1,1 km/h (1 Bft) N 0,52 h 0,000 mm 0,0 UV-I 42 W/m 13,2 C 13,5 C 2,4 km/h (1 Bft)
12.07.2014 07:00 14,0 C 96 % 1010,3 hPa 0,0 l/m 6,0 km/h (2 Bft) NW 1,00 h 0,025 mm 0,7 UV-I 149 W/m 13,4 C 13,6 C 9,5 km/h (2 Bft)
12.07.2014 08:00 14,9 C 88 % 1010,5 hPa 0,0 l/m 5,6 km/h (1 Bft) N-NW 1,00 h 0,076 mm 1,3 UV-I 301 W/m 13,0 C 14,6 C 8,5 km/h (2 Bft)
12.07.2014 09:00 16,0 C 81 % 1010,8 hPa 0,0 l/m 5,0 km/h (1 Bft) N-NW 1,00 h 0,178 mm 2,3 UV-I 411 W/m 12,8 C 15,9 C 7,9 km/h (2 Bft)
12.07.2014 10:00 17,8 C 72 % 1010,6 hPa 0,0 l/m 5,2 km/h (1 Bft) N-NW 1,00 h 0,254 mm 4,2 UV-I 631 W/m 12,7 C 17,5 C 9,0 km/h (2 Bft)
12.07.2014 11:00 19,0 C 63 % 1010,4 hPa 0,0 l/m 7,0 km/h (2 Bft) NW 1,00 h 0,356 mm 5,7 UV-I 828 W/m 11,9 C 18,5 C 11,2 km/h (2 Bft)
12.07.2014 12:00 20,1 C 54 % 1010,4 hPa 0,0 l/m 8,0 km/h (2 Bft) N-NW 1,00 h 0,483 mm 6,8 UV-I 876 W/m 10,5 C 19,3 C 13,0 km/h (3 Bft)
12.07.2014 13:00 21,4 C 48 % 1010,1 hPa 0,0 l/m 11,1 km/h (2 Bft) NW 1,00 h 0,533 mm 7,2 UV-I 891 W/m 9,9 C 19,9 C 16,6 km/h (3 Bft)
12.07.2014 14:00 21,8 C 46 % 1010,0 hPa 0,0 l/m 10,6 km/h (2 Bft) N 1,00 h 0,610 mm 6,3 UV-I 807 W/m 9,5 C 20,4 C 16,3 km/h (3 Bft)
12.07.2014 15:00 22,2 C 45 % 1010,0 hPa 0,0 l/m 9,3 km/h (2 Bft) NW 1,00 h 0,533 mm 5,2 UV-I 791 W/m 9,7 C 21,3 C 14,5 km/h (3 Bft)
12.07.2014 16:00 22,2 C 43 % 1009,8 hPa 0,0 l/m 9,0 km/h (2 Bft) NW 1,00 h 0,533 mm 3,9 UV-I 650 W/m 8,8 C 21,3 C 14,4 km/h (3 Bft)
12.07.2014 17:00 21,4 C 43 % 1009,4 hPa 0,0 l/m 9,4 km/h (2 Bft) N 1,00 h 0,457 mm 2,2 UV-I 428 W/m 8,3 C 20,4 C 14,4 km/h (3 Bft)
12.07.2014 18:00 20,6 C 44 % 1009,4 hPa 0,0 l/m 9,2 km/h (2 Bft) N 0,83 h 0,305 mm 1,0 UV-I 60 W/m 7,8 C 19,6 C 14,2 km/h (3 Bft)
12.07.2014 19:00 19,8 C 45 % 1009,7 hPa 0,0 l/m 6,6 km/h (2 Bft) N-NW 0,00 h 0,127 mm 0,0 UV-I 36 W/m 7,6 C 19,3 C 10,4 km/h (2 Bft)
12.07.2014 20:00 18,3 C 53 % 1009,9 hPa 0,0 l/m 2,0 km/h (1 Bft) N-NO 0,00 h 0,076 mm 0,0 UV-I 26 W/m 8,6 C 18,3 C 3,6 km/h (1 Bft)
12.07.2014 21:00 16,5 C 64 % 1010,4 hPa 0,0 l/m 0,3 km/h (0 Bft) N-NO 0,00 h 0,026 mm 0,0 UV-I 8 W/m 9,6 C 16,5 C 1,1 km/h (0 Bft)
12.07.2014 22:00 14,2 C 79 % 1010,6 hPa 0,0 l/m 0,2 km/h (0 Bft) O-SO 0,00 h 0,000 mm 0,0 UV-I 0 W/m 10,6 C 14,2 C 0,7 km/h (0 Bft)
12.07.2014 23:00 12,7 C 85 % 1010,8 hPa 0,0 l/m 0,2 km/h (0 Bft) O 0,00 h 0,025 mm 0,0 UV-I 0 W/m 10,2 C 12,7 C 0,9 km/h (0 Bft)
13.07.2014 00:00 11,4 C 90 % 1010,6 hPa 0,0 l/m 0,5 km/h (0 Bft) O-NO 0,00 h 0,000 mm 0,0 UV-I 0 W/m 9,8 C 11,4 C 1,2 km/h (1 Bft)
13.07.2014 01:00 10,5 C 91 % 1010,4 hPa 0,0 l/m 0,1 km/h (0 Bft) O 0,00 h 0,000 mm 0,0 UV-I 0 W/m 9,1 C 10,5 C 0,2 km/h (0 Bft)
13.07.2014 02:00 9,7 C 93 % 1010,2 hPa 0,0 l/m 0,2 km/h (0 Bft) O 0,00 h 0,000 mm 0,0 UV-I 0 W/m 8,6 C 9,7 C 1,3 km/h (1 Bft)
13.07.2014 03:00 9,2 C 93 % 1010,3 hPa 0,0 l/m 0,0 km/h (0 Bft) N 0,00 h 0,000 mm 0,0 UV-I 0 W/m 8,1 C 9,2 C 0,4 km/h (0 Bft)
13.07.2014 04:00 8,6 C 94 % 1010,2 hPa 0,0 l/m 0,0 km/h (0 Bft) N 0,00 h 0,000 mm 0,0 UV-I 0 W/m 7,7 C 8,6 C 0,1 km/h (0 Bft)
13.07.2014 05:00 8,0 C 95 % 1010,3 hPa 0,0 l/m 0,2 km/h (0 Bft) SO 0,00 h 0,000 mm 0,0 UV-I 8 W/m 7,3 C 8,0 C 0,7 km/h (0 Bft)
13.07.2014 06:00 8,5 C 95 % 1010,4 hPa 0,0 l/m 0,1 km/h (0 Bft) SO 0,13 h 0,000 mm 0,0 UV-I 32 W/m 7,7 C 8,5 C 0,4 km/h (0 Bft)
13.07.2014 07:00 10,5 C 92 % 1010,3 hPa 0,0 l/m 0,4 km/h (0 Bft) S-SO 0,67 h 0,025 mm 0,6 UV-I 107 W/m 9,2 C 10,5 C 1,1 km/h (1 Bft)
13.07.2014 08:00 13,9 C 91 % 1010,5 hPa 0,0 l/m 4,3 km/h (1 Bft) S 1,00 h 0,051 mm 0,9 UV-I 150 W/m 12,4 C 13,7 C 7,2 km/h (2 Bft)
13.07.2014 09:00 16,2 C 87 % 1010,3 hPa 0,0 l/m 4,4 km/h (1 Bft) S-SW 1,00 h 0,076 mm 2,2 UV-I 346 W/m 14,0 C 16,0 C 7,0 km/h (2 Bft)
13.07.2014 10:00 17,4 C 81 % 1009,9 hPa 0,0 l/m 7,5 km/h (2 Bft) S 1,00 h 0,178 mm 1,9 UV-I 262 W/m 14,0 C 16,7 C 11,6 km/h (2 Bft)
13.07.2014 11:00 17,7 C 81 % 1009,8 hPa 0,0 l/m 7,4 km/h (2 Bft) SW 1,00 h 0,152 mm 2,4 UV-I 272 W/m 14,4 C 16,9 C 12,0 km/h (2 Bft)
13.07.2014 12:00 17,7 C 80 % 1009,8 hPa 0,4 l/m 7,6 km/h (2 Bft) S 0,72 h 0,178 mm 2,6 UV-I 212 W/m 14,3 C 17,0 C 12,3 km/h (3 Bft)
13.07.2014 13:00 16,2 C 90 % 1010,1 hPa 1,6 l/m 6,9 km/h (2 Bft) W 1,00 h 0,127 mm 3,4 UV-I 311 W/m 14,5 C 15,5 C 10,7 km/h (2 Bft)
13.07.2014 14:00 18,0 C 79 % 1009,9 hPa 0,0 l/m 9,3 km/h (2 Bft) W-SW 1,00 h 0,203 mm 4,5 UV-I 435 W/m 14,4 C 16,7 C 14,3 km/h (3 Bft)
13.07.2014 15:00 18,5 C 77 % 1009,7 hPa 0,0 l/m 6,8 km/h (2 Bft) W-SW 1,00 h 0,356 mm 2,7 UV-I 262 W/m 14,3 C 18,0 C 10,9 km/h (2 Bft)
13.07.2014 16:00 20,0 C 68 % 1009,5 hPa 0,0 l/m 10,5 km/h (2 Bft) W-NW 0,88 h 0,203 mm 3,1 UV-I 382 W/m 13,8 C 18,6 C 16,3 km/h (3 Bft)
13.07.2014 17:00 16,4 C 86 % 1009,9 hPa 2,4 l/m 5,6 km/h (1 Bft) W-NW 0,75 h 0,279 mm 0,6 UV-I 77 W/m 14,1 C 16,1 C 8,9 km/h (2 Bft)
13.07.2014 18:00 16,1 C 92 % 1009,4 hPa 0,2 l/m 3,3 km/h (1 Bft) S-SO 1,00 h 0,051 mm 0,7 UV-I 135 W/m 14,7 C 16,1 C 5,3 km/h (1 Bft)
13.07.2014 19:00 16,2 C 91 % 1009,4 hPa 0,0 l/m 4,8 km/h (1 Bft) S 1,00 h 0,076 mm 0,5 UV-I 110 W/m 14,7 C 16,1 C 7,9 km/h (2 Bft)
13.07.2014 20:00 15,8 C 91 % 1009,7 hPa 0,0 l/m 2,3 km/h (1 Bft) S 0,07 h 0,076 mm 0,0 UV-I 25 W/m 14,4 C 15,8 C 4,0 km/h (1 Bft)
13.07.2014 21:00 15,2 C 93 % 1009,8 hPa 0,0 l/m 2,8 km/h (1 Bft) S 0,00 h 0,026 mm 0,0 UV-I 6 W/m 14,2 C 15,2 C 5,2 km/h (1 Bft)
13.07.2014 22:00 14,8 C 94 % 1009,9 hPa 0,0 l/m 1,4 km/h (1 Bft) SO 0,00 h 0,000 mm 0,0 UV-I 0 W/m 13,8 C 14,8 C 3,0 km/h (1 Bft)
13.07.2014 23:00 14,5 C 93 % 1010,1 hPa 0,0 l/m 1,1 km/h (1 Bft) O-SO 0,00 h 0,000 mm 0,0 UV-I 0 W/m 13,4 C 14,5 C 2,3 km/h (1 Bft)
Min-Datum _ 11.07.14 12.07.14 09.07.14 - 07.07.14 - - - - - 12.07.14 09.07.14 07.07.14
_ Min-Zeit 09:26 16:51 04:55 - 00:08 - - - - - 19:15 09:50 00:08
Minimum _ 0,0 C 39 % 1001,6 hPa - 0,0 km/h (0 Bft) - - - - - 6,9 C 6,6 C 0,0 km/h (0 Bft)
Max-Datum _ 07.07.14 11.07.14 07.07.14 11.07.14 11.07.14 - 13.07.14 12.07.14 07.07.14 11.07.14 08.07.14 07.07.14 11.07.14
_ Max-Zeit 15:57 06:20 11:27 18:10 18:10 - 09:43 14:00 13:19 13:36 12:29 15:57 18:10
Maximum _ 26,2 C 98 % 1015,9 hPa 6,6 l/m 27,4 km/h
N-NO (4 Bft)
- 0,08 h 0,610 mm 8,9 UV-I 1136 W/m 19,0 C 26,2 C 40,2 km/h
N-NO (6 Bft)
Durchschnitt _ 15,7 C 84 % 1008,8 hPa #49,4 l/m 4,9 km/h (1 Bft) W-SW #81:28 h #16,532 mm 2,3 UV-I 218 W/m 12,8 C 15,3 C 8,0 km/h (2 Bft)